Time;durP1;ratioP1;P1;durP2;ratioP2;P2;SDS_P1;SDS_P2;PMS_P1;PMS_P2;Temp;Humidity;BMP_temperature;BMP_pressure;BME280_temperature;BME280_humidity;BME280_pressure;Samples;Min_cycle;Max_cycle;Signal;HPM_P1;HPM_P2
2023/03/05 00:01:49;;;;;;;30.50;17.50;;;;;;;7.87;66.46;94166.06;4181471;28;20118;-51
2023/03/05 00:03:52;;;;;;;26.52;16.17;;;;;;;7.86;65.64;94167.06;4181009;28;20053;-53
2023/03/05 00:05:57;;;;;;;29.15;17.85;;;;;;;7.79;65.11;94164.25;4198535;28;20060;-49
2023/03/05 00:08:00;;;;;;;31.02;16.80;;;;;;;7.74;65.76;94159.53;4212574;28;20048;-55
2023/03/05 00:10:04;;;;;;;30.70;17.88;;;;;;;7.73;65.84;94155.25;4213460;28;20048;-51
2023/03/05 00:12:06;;;;;;;28.92;16.90;;;;;;;7.72;65.52;94155.41;4203130;28;20049;-52
2023/03/05 00:14:09;;;;;;;26.00;16.30;;;;;;;7.75;66.03;94155.94;4210000;28;20046;-49
2023/03/05 00:16:14;;;;;;;29.05;16.95;;;;;;;7.80;65.88;94151.03;4203284;28;20511;-52
2023/03/05 00:18:16;;;;;;;29.73;17.27;;;;;;;7.86;65.47;94151.41;4211448;28;20048;-57
2023/03/05 00:20:18;;;;;;;28.25;16.50;;;;;;;7.86;65.17;94147.00;4212719;28;20051;-54
2023/03/05 00:22:19;;;;;;;28.27;16.80;;;;;;;7.86;65.09;94143.59;4208222;28;20051;-52
2023/03/05 00:24:21;;;;;;;29.67;15.57;;;;;;;7.80;65.27;94143.22;4205075;28;20387;-53
2023/03/05 00:26:24;;;;;;;27.23;17.60;;;;;;;7.80;65.11;94143.22;4213612;28;20149;-52
2023/03/05 00:28:26;;;;;;;30.27;16.23;;;;;;;7.79;65.18;94141.59;4205078;28;20044;-49
2023/03/05 00:30:28;;;;;;;28.25;15.95;;;;;;;7.77;65.09;94142.75;4203110;28;20470;-53
2023/03/05 00:32:29;;;;;;;27.30;16.77;;;;;;;7.73;64.81;94141.41;4212356;28;20517;-54
2023/03/05 00:34:31;;;;;;;28.40;16.70;;;;;;;7.77;65.08;94142.75;4212730;28;20072;-54
2023/03/05 00:36:33;;;;;;;27.52;17.02;;;;;;;7.78;64.79;94145.16;4206778;28;20563;-54
2023/03/05 00:38:38;;;;;;;28.63;16.38;;;;;;;7.77;65.18;94132.31;4202101;28;20051;-60
2023/03/05 00:40:43;;;;;;;31.45;16.10;;;;;;;7.73;64.71;94138.81;4212405;28;20048;-49
2023/03/05 00:42:48;;;;;;;27.23;14.95;;;;;;;7.58;64.69;94128.94;4208867;28;20059;-52
2023/03/05 00:44:50;;;;;;;26.20;16.10;;;;;;;7.51;64.62;94127.94;4188575;28;20048;-55
2023/03/05 00:46:51;;;;;;;24.98;14.95;;;;;;;7.44;64.56;94126.09;4202961;28;20048;-53
2023/03/05 00:48:54;;;;;;;28.17;15.98;;;;;;;7.42;65.14;94125.41;4205522;28;20039;-54
2023/03/05 00:50:56;;;;;;;25.70;15.25;;;;;;;7.41;64.77;94122.00;4213013;28;20048;-51
2023/03/05 00:52:57;;;;;;;23.40;14.65;;;;;;;7.42;64.92;94118.44;4198435;28;20044;-54
2023/03/05 00:54:59;;;;;;;24.80;15.73;;;;;;;7.41;64.51;94124.63;4183819;28;20049;-54
2023/03/05 00:57:00;;;;;;;32.70;16.17;;;;;;;7.37;64.48;94111.06;4187402;28;20131;-54
2023/03/05 00:59:02;;;;;;;28.67;16.85;;;;;;;7.38;64.64;94114.50;4197018;28;20048;-54
2023/03/05 01:01:05;;;;;;;26.58;15.40;;;;;;;7.43;64.18;94116.66;4209003;28;20060;-55
2023/03/05 01:03:06;;;;;;;25.70;16.63;;;;;;;7.44;64.12;94113.06;4210600;28;20044;-50
2023/03/05 01:05:12;;;;;;;29.55;16.42;;;;;;;7.39;63.77;94111.72;4204184;28;20456;-52
2023/03/05 01:07:14;;;;;;;30.88;16.08;;;;;;;7.39;63.20;94109.13;4183057;28;20060;-51
2023/03/05 01:09:16;;;;;;;27.13;16.25;;;;;;;7.35;63.31;94113.00;4199682;28;20728;-49
2023/03/05 01:11:17;;;;;;;28.15;15.80;;;;;;;7.29;63.75;94107.59;4213693;28;20475;-51
2023/03/05 01:13:22;;;;;;;22.40;14.52;;;;;;;7.27;63.73;94099.09;4193121;28;20076;-54
2023/03/05 01:15:24;;;;;;;23.63;14.98;;;;;;;7.19;62.91;94097.28;4197456;28;20105;-53
2023/03/05 01:17:26;;;;;;;23.15;14.93;;;;;;;7.18;62.83;94098.25;4180588;28;20094;-55
2023/03/05 01:19:27;;;;;;;27.55;15.43;;;;;;;7.17;62.97;94100.03;4189566;28;20120;-49
2023/03/05 01:21:35;;;;;;;25.83;15.35;;;;;;;7.23;62.72;94097.78;4197031;28;20558;-54
2023/03/05 01:23:37;;;;;;;25.52;14.55;;;;;;;7.23;62.66;94097.78;4193001;28;20114;-52
2023/03/05 01:25:39;;;;;;;28.00;16.25;;;;;;;7.22;62.73;94096.97;4194584;28;20052;-52
2023/03/05 01:27:41;;;;;;;24.88;14.65;;;;;;;7.25;62.71;94093.22;4201877;28;20052;-52
2023/03/05 01:29:42;;;;;;;23.05;15.02;;;;;;;7.22;62.34;94090.94;4184879;28;20075;-54
2023/03/05 01:31:47;;;;;;;23.20;15.63;;;;;;;7.22;62.50;94086.53;4191797;28;20071;-48
2023/03/05 01:33:53;;;;;;;28.02;15.00;;;;;;;7.26;62.69;94087.06;4187919;28;20485;-55
2023/03/05 01:35:54;;;;;;;25.55;15.80;;;;;;;7.15;62.72;94085.53;4198466;28;20353;-53
2023/03/05 01:37:56;;;;;;;27.40;15.68;;;;;;;7.17;62.60;94088.81;4191032;28;20052;-52
2023/03/05 01:39:58;;;;;;;25.48;15.15;;;;;;;7.11;62.82;94092.81;4199415;28;20096;-51
2023/03/05 01:41:59;;;;;;;24.63;15.57;;;;;;;7.07;62.77;94083.69;4198437;28;20135;-53
2023/03/05 01:44:01;;;;;;;25.98;15.38;;;;;;;7.13;62.89;94082.25;4200093;28;20044;-52
2023/03/05 01:46:12;;;;;;;25.17;14.70;;;;;;;6.98;62.94;94082.00;4205401;28;20536;-51
2023/03/05 01:48:17;;;;;;;25.67;15.27;;;;;;;7.00;63.14;94081.84;4196107;28;20048;-53
2023/03/05 01:50:22;;;;;;;21.52;13.93;;;;;;;7.02;62.67;94085.13;4184583;28;20167;-52
2023/03/05 01:52:24;;;;;;;25.63;14.13;;;;;;;7.02;62.87;94082.53;4184515;28;20171;-52
2023/03/05 01:54:46;;;;;;;25.30;15.60;;;;;;;6.95;63.02;94092.75;4193948;28;20122;-51
2023/03/05 01:56:49;;;;;;;28.27;15.10;;;;;;;7.00;62.91;94087.88;4193697;28;20432;-53
2023/03/05 01:58:51;;;;;;;29.67;16.73;;;;;;;7.02;62.53;94085.94;4172013;28;20049;-53
2023/03/05 02:00:54;;;;;;;23.75;14.35;;;;;;;7.01;62.80;94086.09;4181667;28;20499;-51
2023/03/05 02:02:56;;;;;;;25.47;15.50;;;;;;;7.05;62.21;94088.22;4186368;28;20047;-52
2023/03/05 02:05:01;;;;;;;28.17;15.95;;;;;;;7.03;62.85;94092.78;4204104;28;20082;-51
2023/03/05 02:07:04;;;;;;;24.40;15.63;;;;;;;7.08;62.40;94085.34;4205837;28;20078;-52
2023/03/05 02:09:06;;;;;;;28.98;16.45;;;;;;;7.14;62.01;94096.91;4208821;28;20052;-54
2023/03/05 02:11:11;;;;;;;28.90;16.00;;;;;;;7.09;62.38;94093.97;4200870;28;20052;-51
2023/03/05 02:13:16;;;;;;;25.92;14.95;;;;;;;7.08;62.52;94089.72;4207016;28;20051;-48
2023/03/05 02:15:18;;;;;;;22.45;14.82;;;;;;;7.02;62.42;94092.94;4209384;28;20472;-52
2023/03/05 02:17:19;;;;;;;26.55;15.30;;;;;;;7.12;62.17;94088.44;4186122;28;20484;-52
2023/03/05 02:19:21;;;;;;;25.58;15.27;;;;;;;7.18;62.00;94086.06;4211961;28;20467;-54
2023/03/05 02:21:28;;;;;;;24.92;14.57;;;;;;;7.23;61.95;94088.19;4211199;28;20143;-54
2023/03/05 02:23:35;;;;;;;24.40;15.55;;;;;;;7.26;61.55;94093.09;4210370;28;20076;-51
2023/03/05 02:25:36;;;;;;;29.15;15.32;;;;;;;7.26;61.48;94090.47;4211386;28;20040;-55
2023/03/05 02:27:40;;;;;;;25.23;15.07;;;;;;;7.22;62.28;94085.75;4211367;28;20060;-57
2023/03/05 02:29:45;;;;;;;26.98;15.98;;;;;;;7.17;62.11;94094.03;4211936;28;20048;-51
2023/03/05 02:31:47;;;;;;;25.00;15.32;;;;;;;7.16;62.32;94095.81;4183237;28;20487;-51
2023/03/05 02:33:49;;;;;;;25.08;15.70;;;;;;;7.21;62.44;94094.53;4192120;28;20076;-52
2023/03/05 02:35:51;;;;;;;26.90;15.60;;;;;;;7.20;62.22;94100.69;4190027;28;20055;-55
2023/03/05 02:37:52;;;;;;;23.35;14.45;;;;;;;7.15;62.37;94098.56;4186845;28;20538;-51
2023/03/05 02:39:54;;;;;;;27.77;16.02;;;;;;;7.02;63.02;94095.53;4192504;28;20052;-53
2023/03/05 02:41:56;;;;;;;25.77;16.90;;;;;;;7.03;63.25;94092.78;4193790;28;20063;-53
2023/03/05 02:43:57;;;;;;;29.65;17.13;;;;;;;6.83;63.84;94097.34;4191740;28;20114;-59
2023/03/05 02:45:59;;;;;;;30.40;16.42;;;;;;;6.84;64.08;94096.41;4208369;28;20493;-57
2023/03/05 02:48:01;;;;;;;30.38;17.50;;;;;;;6.80;64.35;94100.28;4204431;28;20056;-58
2023/03/05 02:50:04;;;;;;;31.73;17.38;;;;;;;6.64;64.70;94102.72;4200302;28;20048;-54
2023/03/05 02:52:06;;;;;;;26.45;16.85;;;;;;;6.61;65.33;94101.25;4197048;28;20041;-56
2023/03/05 02:54:07;;;;;;;27.02;16.70;;;;;;;6.54;65.47;94103.63;4202805;28;20052;-58
2023/03/05 02:56:09;;;;;;;27.58;17.60;;;;;;;6.57;65.35;94102.50;4203403;28;20051;-58
2023/03/05 02:58:11;;;;;;;27.77;17.75;;;;;;;6.66;65.79;94106.81;4202959;28;20108;-59
2023/03/05 03:00:13;;;;;;;31.98;19.38;;;;;;;6.59;65.25;94107.56;4197686;28;20581;-59
2023/03/05 03:02:15;;;;;;;32.33;19.35;;;;;;;6.65;65.18;94112.19;4193564;28;20167;-57
2023/03/05 03:04:17;;;;;;;32.05;18.65;;;;;;;6.71;65.20;94101.16;4206105;28;20540;-56
2023/03/05 03:06:22;;;;;;;30.10;18.60;;;;;;;6.73;65.08;94112.22;4189534;28;20052;-56
2023/03/05 03:08:23;;;;;;;29.40;18.40;;;;;;;6.72;65.22;94106.22;4199458;28;20064;-58
2023/03/05 03:10:25;;;;;;;32.63;18.05;;;;;;;6.68;65.17;94115.28;4201700;28;20087;-57
2023/03/05 03:12:26;;;;;;;35.25;18.48;;;;;;;6.71;64.94;94112.41;4192395;28;20597;-59
2023/03/05 03:14:37;;;;;;;33.05;18.25;;;;;;;6.68;65.00;94107.47;4200952;28;20047;-59
2023/03/05 03:16:39;;;;;;;32.00;19.95;;;;;;;6.64;64.81;94110.53;4211913;28;20052;-57
2023/03/05 03:18:41;;;;;;;33.15;20.48;;;;;;;6.66;64.87;94106.00;4182952;28;20049;-55
2023/03/05 03:20:43;;;;;;;35.95;19.77;;;;;;;6.55;64.84;94107.84;4192006;28;20399;-59
2023/03/05 03:22:45;;;;;;;32.40;19.75;;;;;;;6.53;65.45;94103.78;4181361;28;20091;-57
2023/03/05 03:24:53;;;;;;;31.42;19.70;;;;;;;6.49;65.44;94113.66;4193867;28;20135;-60
2023/03/05 03:26:54;;;;;;;33.90;19.25;;;;;;;6.49;65.19;94107.63;4186045;28;20576;-58
2023/03/05 03:28:56;;;;;;;30.50;18.63;;;;;;;6.55;65.24;94107.84;4183537;28;20060;-59
2023/03/05 03:30:58;;;;;;;31.88;17.88;;;;;;;6.52;65.34;94105.56;4184047;28;20136;-59
2023/03/05 03:33:00;;;;;;;30.38;18.05;;;;;;;6.50;65.18;94107.50;4193330;28;20054;-55
2023/03/05 03:35:01;;;;;;;30.92;18.88;;;;;;;6.55;64.70;94110.47;4197146;28;20132;-58
2023/03/05 03:37:03;;;;;;;30.77;19.58;;;;;;;6.55;64.89;94115.66;4185812;28;20087;-59
2023/03/05 03:39:05;;;;;;;40.25;19.95;;;;;;;6.50;64.94;94110.09;4188795;28;20052;-57
2023/03/05 03:41:07;;;;;;;37.00;20.00;;;;;;;6.51;64.69;94110.91;4181653;28;20051;-58
2023/03/05 03:43:09;;;;;;;32.17;18.52;;;;;;;6.57;64.98;94112.91;4181549;28;20045;-57
2023/03/05 03:45:11;;;;;;;35.83;19.60;;;;;;;6.47;64.77;94117.38;4181731;28;20107;-56
2023/03/05 03:47:13;;;;;;;36.65;18.80;;;;;;;6.35;65.06;94115.00;4188602;28;20106;-56
2023/03/05 03:49:18;;;;;;;35.67;19.90;;;;;;;6.35;65.61;94114.19;4208345;28;20185;-59
2023/03/05 03:51:19;;;;;;;34.00;19.73;;;;;;;6.41;65.51;94117.97;4213030;28;20047;-56
2023/03/05 03:53:21;;;;;;;29.40;19.95;;;;;;;6.42;65.40;94117.00;4213929;28;20043;-57
2023/03/05 03:55:22;;;;;;;37.33;21.80;;;;;;;6.48;65.38;94112.03;4214185;28;20048;-58
2023/03/05 03:57:28;;;;;;;36.28;20.25;;;;;;;6.35;65.49;94120.19;4214701;28;20513;-57
2023/03/05 03:59:30;;;;;;;39.33;21.17;;;;;;;6.38;65.51;94113.88;4213313;28;20052;-57
2023/03/05 04:01:32;;;;;;;37.72;20.75;;;;;;;6.35;65.87;94115.00;4213974;28;20040;-57
2023/03/05 04:03:33;;;;;;;34.42;20.40;;;;;;;6.28;65.72;94113.97;4203466;28;20676;-55
2023/03/05 04:05:40;;;;;;;36.30;20.48;;;;;;;6.29;66.01;94114.75;4198327;28;20053;-57
2023/03/05 04:07:41;;;;;;;33.50;19.65;;;;;;;6.33;65.94;94116.13;4212604;28;20040;-57
2023/03/05 04:09:43;;;;;;;36.15;21.48;;;;;;;6.32;65.55;94110.09;4214308;28;20405;-59
2023/03/05 04:11:45;;;;;;;37.92;21.75;;;;;;;6.32;65.88;94120.50;4212478;28;20140;-58
2023/03/05 04:13:47;;;;;;;40.85;23.17;;;;;;;6.36;65.61;94119.22;4210264;28;20051;-60
2023/03/05 04:15:49;;;;;;;33.05;19.40;;;;;;;6.29;65.49;94123.38;4214450;28;20366;-58
2023/03/05 04:17:53;;;;;;;37.35;22.13;;;;;;;6.30;65.24;94126.78;4212758;28;20078;-59
2023/03/05 04:19:55;;;;;;;37.33;23.00;;;;;;;6.27;65.50;94124.50;4214388;28;20052;-56
2023/03/05 04:21:57;;;;;;;33.90;22.35;;;;;;;6.35;65.47;94116.78;4213405;28;20070;-57
2023/03/05 04:23:59;;;;;;;37.03;22.60;;;;;;;6.41;65.14;94118.78;4213498;28;20063;-59
2023/03/05 04:26:01;;;;;;;38.00;21.17;;;;;;;6.45;65.03;94116.69;4214154;28;20056;-57
2023/03/05 04:28:02;;;;;;;36.05;22.25;;;;;;;6.50;64.80;94125.72;4213666;28;20080;-59
2023/03/05 04:30:05;;;;;;;34.58;20.92;;;;;;;6.49;64.33;94125.84;4213367;28;20048;-60
2023/03/05 04:32:07;;;;;;;34.22;19.30;;;;;;;6.43;63.97;94121.22;4204817;28;20072;-56
2023/03/05 04:34:08;;;;;;;37.55;21.52;;;;;;;6.43;64.43;94121.22;4189008;28;20107;-55
2023/03/05 04:36:10;;;;;;;33.55;19.77;;;;;;;6.39;64.68;94122.50;4191741;28;20059;-60
2023/03/05 04:38:12;;;;;;;30.52;19.92;;;;;;;6.32;64.63;94115.31;4181940;28;20060;-58
2023/03/05 04:40:14;;;;;;;31.75;20.17;;;;;;;6.37;64.54;94117.47;4193647;28;20053;-57
2023/03/05 04:42:17;;;;;;;32.83;19.27;;;;;;;6.32;64.86;94124.88;4188423;28;20064;-59
2023/03/05 04:44:18;;;;;;;33.28;19.13;;;;;;;6.26;64.90;94115.88;4208415;28;20055;-60
2023/03/05 04:46:20;;;;;;;31.90;19.48;;;;;;;6.29;64.89;94114.75;4211298;28;20574;-57
2023/03/05 04:48:22;;;;;;;32.67;20.27;;;;;;;6.37;64.64;94107.06;4195667;28;20502;-57
2023/03/05 04:50:23;;;;;;;37.03;20.42;;;;;;;6.36;64.63;94114.00;4190262;28;20500;-56
2023/03/05 04:52:25;;;;;;;36.97;19.42;;;;;;;6.40;64.75;94108.53;4180105;28;20080;-57
2023/03/05 04:54:27;;;;;;;30.42;19.00;;;;;;;6.40;64.62;94111.94;4209009;28;20086;-59
2023/03/05 04:56:29;;;;;;;33.95;19.52;;;;;;;6.38;64.40;94105.25;4209600;28;20465;-58
2023/03/05 04:58:30;;;;;;;34.00;19.42;;;;;;;6.32;64.12;94104.06;4205170;28;20564;-59
2023/03/05 05:00:32;;;;;;;27.63;18.17;;;;;;;6.18;64.62;94113.19;4190655;28;20080;-58
2023/03/05 05:02:33;;;;;;;32.13;18.65;;;;;;;6.22;64.85;94104.13;4205702;28;20779;-57
2023/03/05 05:04:35;;;;;;;32.65;17.88;;;;;;;6.14;64.75;94104.84;4180835;28;20258;-56
2023/03/05 05:06:37;;;;;;;30.20;18.20;;;;;;;6.15;64.68;94108.25;4180445;28;20045;-58
2023/03/05 05:08:38;;;;;;;29.88;19.23;;;;;;;6.19;64.48;94117.41;4179827;28;20048;-59
2023/03/05 05:10:40;;;;;;;32.63;19.10;;;;;;;6.15;63.86;94113.47;4193703;28;20545;-58
2023/03/05 05:12:41;;;;;;;29.33;18.23;;;;;;;6.13;64.23;94118.84;4185574;28;20049;-60
2023/03/05 05:14:43;;;;;;;31.08;17.02;;;;;;;6.22;64.08;94118.94;4188423;28;20041;-60
2023/03/05 05:16:45;;;;;;;34.85;19.65;;;;;;;6.19;63.42;94116.59;4192862;28;20044;-58
2023/03/05 05:18:46;;;;;;;27.50;17.45;;;;;;;6.26;63.71;94122.84;4196748;28;20075;-59
2023/03/05 05:20:48;;;;;;;31.55;18.15;;;;;;;6.22;63.22;94119.75;4180913;28;20049;-56
2023/03/05 05:22:50;;;;;;;29.08;18.42;;;;;;;6.19;63.08;94120.00;4181453;28;20078;-58
2023/03/05 05:24:52;;;;;;;31.92;18.20;;;;;;;6.20;63.66;94119.06;4182761;28;20053;-59
2023/03/05 05:26:54;;;;;;;28.23;16.80;;;;;;;6.20;63.20;94119.06;4197410;28;20277;-56
2023/03/05 05:28:56;;;;;;;31.52;17.50;;;;;;;6.17;62.92;94114.13;4187956;28;20118;-55
2023/03/05 05:30:57;;;;;;;28.60;16.50;;;;;;;6.17;62.32;94121.13;4197571;28;20082;-54
2023/03/05 05:32:59;;;;;;;31.52;17.02;;;;;;;6.17;63.28;94114.13;4195624;28;20048;-55
2023/03/05 05:35:01;;;;;;;30.13;17.67;;;;;;;6.19;63.10;94114.00;4182451;28;20084;-55
2023/03/05 05:37:05;;;;;;;29.98;18.20;;;;;;;6.21;62.46;94122.47;4184006;28;20059;-54
2023/03/05 05:39:10;;;;;;;35.40;17.92;;;;;;;6.23;62.41;94128.34;4205192;28;20101;-50
2023/03/05 05:41:14;;;;;;;30.42;17.83;;;;;;;6.27;61.85;94116.69;4199392;28;20422;-48
2023/03/05 05:43:16;;;;;;;28.10;17.63;;;;;;;6.19;62.11;94120.00;4183623;28;20076;-55
2023/03/05 05:45:17;;;;;;;30.98;16.00;;;;;;;6.26;62.12;94122.84;4202379;28;20109;-55
2023/03/05 05:47:19;;;;;;;24.90;15.65;;;;;;;6.21;61.20;94117.28;4202041;28;20048;-52
2023/03/05 05:49:21;;;;;;;27.27;16.48;;;;;;;6.33;61.11;94131.72;4208031;28;20071;-55
2023/03/05 05:51:23;;;;;;;29.60;17.10;;;;;;;6.36;60.68;94127.03;4211642;28;20090;-52
2023/03/05 05:53:25;;;;;;;31.67;17.25;;;;;;;6.44;60.38;94133.28;4212530;28;20082;-55
2023/03/05 05:55:26;;;;;;;27.40;15.60;;;;;;;6.35;60.31;94125.41;4204858;28;20422;-53
2023/03/05 05:57:28;;;;;;;27.38;14.50;;;;;;;6.40;60.21;94135.34;4208395;28;20387;-53
2023/03/05 05:59:30;;;;;;;27.15;15.48;;;;;;;6.32;59.75;94133.50;4208551;28;20458;-54
2023/03/05 06:01:33;;;;;;;27.85;16.58;;;;;;;6.26;60.32;94130.66;4211572;28;20040;-55
2023/03/05 06:03:34;;;;;;;29.70;16.63;;;;;;;6.44;59.81;94130.69;4201391;28;20135;-55
2023/03/05 06:05:36;;;;;;;30.67;16.13;;;;;;;6.45;59.38;94137.50;4209639;28;20060;-51
2023/03/05 06:07:37;;;;;;;26.95;14.13;;;;;;;6.47;58.78;94143.38;4210346;28;20056;-51
2023/03/05 06:09:39;;;;;;;27.58;16.60;;;;;;;6.39;59.08;94136.34;4212031;28;20091;-56
2023/03/05 06:11:41;;;;;;;27.00;14.73;;;;;;;6.32;58.72;94146.50;4210556;28;20545;-56
2023/03/05 06:13:43;;;;;;;28.48;14.95;;;;;;;6.40;58.60;94145.75;4207000;28;20048;-53
2023/03/05 06:15:44;;;;;;;23.13;14.40;;;;;;;6.34;58.04;94144.56;4195231;28;20052;-53
2023/03/05 06:17:49;;;;;;;25.27;15.40;;;;;;;6.32;58.72;94140.47;4189114;28;20056;-51
2023/03/05 06:19:53;;;;;;;24.35;13.40;;;;;;;6.38;58.36;94145.09;4179738;28;20466;-53
2023/03/05 06:21:55;;;;;;;;;;;;;;;6.40;58.26;94148.38;4180706;28;20128;-56
2023/03/05 06:24:00;;;;;;;25.15;14.65;;;;;;;6.42;57.86;94141.22;4204509;28;19924;-55
2023/03/05 06:26:03;;;;;;;22.60;14.50;;;;;;;6.54;57.74;94145.25;4187282;28;20052;-51
2023/03/05 06:28:05;;;;;;;25.77;15.85;;;;;;;6.62;57.68;94154.09;4195726;28;20048;-60
2023/03/05 06:30:09;;;;;;;31.98;14.55;;;;;;;6.63;57.06;94160.97;4188562;28;20056;-52
2023/03/05 06:32:10;;;;;;;;;;;;;;;6.61;57.02;94166.31;4181607;28;20045;-54
2023/03/05 06:34:12;;;;;;;26.83;14.15;;;;;;;6.69;57.54;94152.53;4195167;28;20397;-54
2023/03/05 06:36:16;;;;;;;28.73;15.82;;;;;;;6.76;56.40;94171.81;4184734;28;20075;-57
2023/03/05 06:38:18;;;;;;;22.92;14.02;;;;;;;6.77;56.54;94163.03;4194387;28;20052;-60
2023/03/05 06:40:19;;;;;;;24.02;13.70;;;;;;;6.81;56.14;94148.75;4198470;28;20044;-53
2023/03/05 06:42:21;;;;;;;24.02;13.35;;;;;;;6.76;56.26;94154.41;4204279;28;20048;-54
2023/03/05 06:44:23;;;;;;;27.58;15.30;;;;;;;6.75;55.91;94162.34;4200269;28;20052;-54
2023/03/05 06:46:27;;;;;;;27.88;15.25;;;;;;;6.67;55.85;94164.91;4193424;28;20052;-54
2023/03/05 06:48:28;;;;;;;23.00;12.43;;;;;;;6.66;55.55;94155.44;4181514;28;20056;-54
2023/03/05 06:50:33;;;;;;;26.75;13.68;;;;;;;6.65;55.40;94156.44;4181491;28;20068;-54
2023/03/05 06:52:37;;;;;;;25.20;14.38;;;;;;;6.75;55.42;94150.19;4192521;28;20074;-54
2023/03/05 06:54:39;;;;;;;24.92;14.57;;;;;;;6.85;54.98;94152.69;4185935;28;20043;-51
2023/03/05 06:56:43;;;;;;;25.55;13.25;;;;;;;6.79;54.56;94161.09;4184847;28;20183;-55
2023/03/05 06:59:04;;;;;;;22.67;13.10;;;;;;;6.76;54.17;94164.00;4186735;28;20471;-53
2023/03/05 07:01:06;;;;;;;23.52;14.43;;;;;;;6.84;54.82;94165.84;4188403;28;20472;-55
2023/03/05 07:03:08;;;;;;;25.40;14.52;;;;;;;6.95;54.87;94173.47;4195414;28;20053;-54
2023/03/05 07:05:09;;;;;;;23.77;13.23;;;;;;;7.01;53.77;94166.81;4196199;28;20233;-56
2023/03/05 07:07:11;;;;;;;25.52;13.05;;;;;;;7.00;53.31;94170.41;4202389;28;20044;-56
2023/03/05 07:09:14;;;;;;;24.52;13.15;;;;;;;6.93;53.94;94159.78;4200810;28;20490;-51
2023/03/05 07:11:18;;;;;;;22.70;13.80;;;;;;;6.92;53.97;94171.94;4203020;28;20041;-56
2023/03/05 07:13:19;;;;;;;21.83;14.02;;;;;;;6.93;54.04;94173.59;4191749;28;20567;-54
2023/03/05 07:15:21;;;;;;;22.25;13.05;;;;;;;7.05;54.44;94170.75;4203435;28;20048;-52
2023/03/05 07:17:23;;;;;;;26.80;13.07;;;;;;;7.12;53.80;94167.41;4190515;28;20050;-56
2023/03/05 07:19:24;;;;;;;29.65;14.43;;;;;;;7.16;53.81;94165.31;4194893;28;20041;-55
2023/03/05 07:21:28;;;;;;;25.63;14.45;;;;;;;7.16;53.91;94171.34;4191560;28;20587;-55
2023/03/05 07:23:30;;;;;;;;;;;;;;;7.19;53.41;94162.41;4195490;28;20514;-55
2023/03/05 07:25:34;;;;;;;26.42;15.02;;;;;;;7.18;54.11;94172.03;4191308;28;19952;-53
2023/03/05 07:27:37;;;;;;;29.15;15.30;;;;;;;7.21;54.15;94170.91;4203147;28;20133;-52
2023/03/05 07:29:39;;;;;;;30.15;14.85;;;;;;;7.20;53.89;94166.63;4194968;28;20072;-55
2023/03/05 07:31:40;;;;;;;26.67;14.98;;;;;;;7.42;53.90;94170.56;4198641;28;20070;-53
2023/03/05 07:33:42;;;;;;;24.90;15.70;;;;;;;7.41;54.14;94165.50;4199579;28;20052;-56
2023/03/05 07:35:44;;;;;;;28.13;15.95;;;;;;;7.48;54.01;94156.91;4201487;28;20045;-56
2023/03/05 07:37:45;;;;;;;26.90;15.90;;;;;;;7.34;54.51;94162.69;4201473;28;20170;-53
2023/03/05 07:39:47;;;;;;;28.38;16.15;;;;;;;7.44;54.20;94159.97;4209649;28;20056;-58
2023/03/05 07:41:50;;;;;;;28.10;15.10;;;;;;;7.44;54.51;94171.19;4212443;28;20048;-55
2023/03/05 07:43:53;;;;;;;29.52;16.63;;;;;;;7.58;54.40;94157.63;4212684;28;20346;-55
2023/03/05 07:45:55;;;;;;;30.52;17.35;;;;;;;7.33;54.34;94167.06;4212694;28;20056;-54
2023/03/05 07:47:56;;;;;;;34.55;17.73;;;;;;;7.02;55.35;94163.25;4196213;28;20105;-56
2023/03/05 07:49:58;;;;;;;33.30;17.92;;;;;;;7.11;55.17;94168.38;4181978;28;20072;-55
2023/03/05 07:51:59;;;;;;;29.60;17.67;;;;;;;7.28;55.29;94163.28;4181350;28;20053;-53
2023/03/05 07:54:01;;;;;;;29.73;17.70;;;;;;;7.38;55.21;94154.41;4192138;28;20048;-53
2023/03/05 07:56:06;;;;;;;34.47;19.25;;;;;;;7.31;55.23;94173.41;4184336;28;20053;-56
2023/03/05 07:58:08;;;;;;;29.55;18.02;;;;;;;7.50;54.60;94154.97;4199025;28;20117;-54
2023/03/05 08:00:11;;;;;;;34.42;18.13;;;;;;;7.61;54.88;94159.09;4199095;28;20560;-59
2023/03/05 08:02:13;;;;;;;32.33;18.02;;;;;;;7.83;54.13;94164.75;4199073;28;20163;-56
2023/03/05 08:04:14;;;;;;;33.92;18.33;;;;;;;7.99;54.13;94162.22;4187951;28;20060;-56
2023/03/05 08:06:16;;;;;;;35.33;17.95;;;;;;;7.87;53.96;94166.06;4188458;28;20041;-57
2023/03/05 08:08:18;;;;;;;39.50;19.30;;;;;;;7.85;54.96;94168.88;4191508;28;20045;-60
2023/03/05 08:10:19;;;;;;;31.65;17.50;;;;;;;7.75;54.99;94166.34;4185628;28;20471;-60
2023/03/05 08:12:22;;;;;;;33.33;17.90;;;;;;;7.91;54.04;94170.00;4191809;28;20036;-60
2023/03/05 08:14:23;;;;;;;32.03;18.25;;;;;;;7.89;54.28;94167.56;4185920;28;20048;-61
2023/03/05 08:16:25;;;;;;;31.17;17.80;;;;;;;7.95;53.58;94160.91;4185428;28;20111;-60
2023/03/05 08:18:32;;;;;;;33.08;18.08;;;;;;;7.80;54.14;94160.66;4193834;28;20105;-57
2023/03/05 08:20:35;;;;;;;34.08;18.55;;;;;;;7.73;55.35;94162.28;4199579;28;20418;-60
2023/03/05 08:22:37;;;;;;;33.97;18.23;;;;;;;7.76;54.86;94161.94;4193033;28;20041;-60
2023/03/05 08:24:38;;;;;;;35.63;18.50;;;;;;;7.70;55.49;94158.19;4198475;28;20482;-61
2023/03/05 08:26:40;;;;;;;31.70;18.30;;;;;;;7.81;54.59;94164.94;4197340;28;20080;-60
2023/03/05 08:28:42;;;;;;;33.33;17.15;;;;;;;7.77;54.76;94161.00;4190295;28;20097;-61
2023/03/05 08:30:48;;;;;;;32.95;18.17;;;;;;;7.69;55.07;94172.19;4194533;28;20045;-60
2023/03/05 08:32:49;;;;;;;29.90;18.30;;;;;;;7.77;55.62;94156.59;4191893;28;20048;-63
2023/03/05 08:34:56;;;;;;;34.08;19.08;;;;;;;7.79;55.45;94166.88;4197908;28;20517;-60
2023/03/05 08:36:58;;;;;;;29.23;17.58;;;;;;;7.82;55.07;94156.13;4204667;28;20078;-61
2023/03/05 08:38:59;;;;;;;29.70;18.38;;;;;;;7.83;54.33;94162.16;4205060;28;20048;-62
2023/03/05 08:41:02;;;;;;;32.15;18.52;;;;;;;7.83;54.45;94151.72;4209788;28;20052;-62
2023/03/05 08:43:06;;;;;;;36.00;19.35;;;;;;;7.90;54.76;94147.53;4211809;28;20055;-60
2023/03/05 08:45:08;;;;;;;30.35;17.75;;;;;;;7.87;54.52;94147.81;4213760;28;20051;-56
2023/03/05 08:47:09;;;;;;;32.25;18.92;;;;;;;7.81;54.28;94149.28;4205057;28;20045;-55
2023/03/05 08:49:17;;;;;;;30.98;17.35;;;;;;;7.86;53.86;94136.59;4209297;28;20494;-57
2023/03/05 08:51:24;;;;;;;35.13;19.10;;;;;;;7.77;54.24;94148.75;4184627;28;20419;-56
2023/03/05 08:53:26;;;;;;;31.55;17.45;;;;;;;7.90;54.08;94144.91;4197785;28;20051;-55
2023/03/05 08:55:27;;;;;;;37.30;18.27;;;;;;;7.89;53.30;94151.09;4207241;28;20105;-55
2023/03/05 08:57:29;;;;;;;27.70;16.75;;;;;;;8.00;52.82;94137.75;4210168;28;20055;-58
2023/03/05 08:59:31;;;;;;;29.55;19.05;;;;;;;8.04;52.43;94141.69;4208592;28;20101;-57
2023/03/05 09:01:33;;;;;;;27.00;16.65;;;;;;;8.05;52.14;94126.88;4196271;28;20048;-55
2023/03/05 09:03:34;;;;;;;30.13;18.10;;;;;;;8.32;51.79;94128.44;4206555;28;20047;-54
2023/03/05 09:05:36;;;;;;;29.48;17.83;;;;;;;8.49;51.66;94122.28;4211439;28;20048;-52
2023/03/05 09:07:39;;;;;;;27.63;17.63;;;;;;;8.57;51.21;94117.09;4209819;28;20093;-54
2023/03/05 09:09:41;;;;;;;28.23;16.27;;;;;;;8.64;50.15;94112.03;4212164;28;20139;-51
2023/03/05 09:11:46;;;;;;;28.42;17.73;;;;;;;8.68;50.00;94112.53;4211261;28;20409;-57
2023/03/05 09:13:47;;;;;;;28.48;17.00;;;;;;;8.84;49.59;94107.34;4211768;28;20110;-55
2023/03/05 09:16:00;;;;;;;30.83;16.98;;;;;;;8.85;49.74;94105.53;4211825;28;20055;-50
2023/03/05 09:18:02;;;;;;;27.85;16.17;;;;;;;8.82;49.43;94097.06;4212277;28;20637;-56
2023/03/05 09:20:05;;;;;;;29.10;17.42;;;;;;;8.99;48.98;94110.09;4212073;28;20052;-54
2023/03/05 09:22:06;;;;;;;32.08;17.10;;;;;;;9.06;49.10;94103.25;4212810;28;20578;-54
2023/03/05 09:24:08;;;;;;;27.85;16.38;;;;;;;9.12;47.76;94104.38;4212857;28;20055;-54
2023/03/05 09:26:12;;;;;;;31.30;16.40;;;;;;;9.13;47.93;94108.63;4213563;28;20056;-56
2023/03/05 09:28:14;;;;;;;28.88;16.23;;;;;;;9.21;47.67;94100.78;4197596;28;20083;-56
2023/03/05 09:30:16;;;;;;;27.20;16.63;;;;;;;9.28;47.65;94101.75;4191568;28;20049;-55
2023/03/05 09:32:17;;;;;;;26.70;14.95;;;;;;;9.15;47.01;94097.03;4187646;28;20048;-56